sensor_id;sensor_type;location;lat;lon;timestamp;temperature;humidity
4425;DHT22;2225;53.568;13.266;2022-09-09T00:01:23;19.00;97.60
4425;DHT22;2225;53.568;13.266;2022-09-09T00:04:10;19.10;97.60
4425;DHT22;2225;53.568;13.266;2022-09-09T00:15:55;19.10;97.40
4425;DHT22;2225;53.568;13.266;2022-09-09T00:21:33;19.10;97.40
4425;DHT22;2225;53.568;13.266;2022-09-09T00:24:23;19.10;97.40
4425;DHT22;2225;53.568;13.266;2022-09-09T00:27:06;19.10;97.40
4425;DHT22;2225;53.568;13.266;2022-09-09T00:32:53;19.00;97.40
4425;DHT22;2225;53.568;13.266;2022-09-09T00:35:33;19.00;97.40
4425;DHT22;2225;53.568;13.266;2022-09-09T00:38:14;19.00;97.50
4425;DHT22;2225;53.568;13.266;2022-09-09T00:40:52;19.00;97.40
4425;DHT22;2225;53.568;13.266;2022-09-09T00:43:30;19.00;97.40
4425;DHT22;2225;53.568;13.266;2022-09-09T00:51:52;19.00;97.40
4425;DHT22;2225;53.568;13.266;2022-09-09T00:54:28;19.00;97.50
4425;DHT22;2225;53.568;13.266;2022-09-09T01:23:11;19.00;97.60
4425;DHT22;2225;53.568;13.266;2022-09-09T01:28:37;19.00;97.40
4425;DHT22;2225;53.568;13.266;2022-09-09T01:31:15;19.10;97.40
4425;DHT22;2225;53.568;13.266;2022-09-09T01:33:46;19.10;97.40
4425;DHT22;2225;53.568;13.266;2022-09-09T01:36:21;19.10;97.30
4425;DHT22;2225;53.568;13.266;2022-09-09T01:39:12;19.10;97.30
4425;DHT22;2225;53.568;13.266;2022-09-09T01:41:40;19.20;97.30
4425;DHT22;2225;53.568;13.266;2022-09-09T01:44:11;19.20;97.20
4425;DHT22;2225;53.568;13.266;2022-09-09T01:46:41;19.10;97.20
4425;DHT22;2225;53.568;13.266;2022-09-09T01:49:14;19.10;97.20
4425;DHT22;2225;53.568;13.266;2022-09-09T01:51:43;19.20;97.20
4425;DHT22;2225;53.568;13.266;2022-09-09T01:54:13;19.20;97.20
4425;DHT22;2225;53.568;13.266;2022-09-09T02:00:07;19.20;97.30
4425;DHT22;2225;53.568;13.266;2022-09-09T02:03:05;19.20;97.40
4425;DHT22;2225;53.568;13.266;2022-09-09T02:05:50;19.20;97.40
4425;DHT22;2225;53.568;13.266;2022-09-09T02:08:33;19.20;97.30
4425;DHT22;2225;53.568;13.266;2022-09-09T02:11:14;19.20;97.40
4425;DHT22;2225;53.568;13.266;2022-09-09T02:13:57;19.20;97.40
4425;DHT22;2225;53.568;13.266;2022-09-09T02:19:28;19.20;97.50
4425;DHT22;2225;53.568;13.266;2022-09-09T02:22:22;19.20;97.80
4425;DHT22;2225;53.568;13.266;2022-09-09T02:24:53;19.20;97.40
4425;DHT22;2225;53.568;13.266;2022-09-09T02:27:25;19.20;97.40
4425;DHT22;2225;53.568;13.266;2022-09-09T02:29:54;19.20;97.40
4425;DHT22;2225;53.568;13.266;2022-09-09T02:32:35;19.20;97.40
4425;DHT22;2225;53.568;13.266;2022-09-09T02:35:13;19.20;97.30
4425;DHT22;2225;53.568;13.266;2022-09-09T02:37:44;19.30;97.50
4425;DHT22;2225;53.568;13.266;2022-09-09T02:40:15;19.30;97.40
4425;DHT22;2225;53.568;13.266;2022-09-09T02:42:48;19.30;97.40
4425;DHT22;2225;53.568;13.266;2022-09-09T02:45:19;19.30;97.50
4425;DHT22;2225;53.568;13.266;2022-09-09T02:48:09;19.30;97.50
4425;DHT22;2225;53.568;13.266;2022-09-09T02:50:56;19.30;97.50
4425;DHT22;2225;53.568;13.266;2022-09-09T02:53:48;19.30;97.60
4425;DHT22;2225;53.568;13.266;2022-09-09T02:56:25;19.30;97.50
4425;DHT22;2225;53.568;13.266;2022-09-09T02:58:55;19.30;97.50
4425;DHT22;2225;53.568;13.266;2022-09-09T03:01:23;19.40;97.60
4425;DHT22;2225;53.568;13.266;2022-09-09T03:03:50;19.30;97.50
4425;DHT22;2225;53.568;13.266;2022-09-09T03:06:17;19.40;97.50
4425;DHT22;2225;53.568;13.266;2022-09-09T03:08:50;19.40;97.50
4425;DHT22;2225;53.568;13.266;2022-09-09T03:11:22;19.40;97.50
4425;DHT22;2225;53.568;13.266;2022-09-09T03:13:49;19.40;97.50
4425;DHT22;2225;53.568;13.266;2022-09-09T03:16:16;19.50;97.50
4425;DHT22;2225;53.568;13.266;2022-09-09T03:18:47;19.40;97.50
4425;DHT22;2225;53.568;13.266;2022-09-09T03:21:14;19.40;97.80
4425;DHT22;2225;53.568;13.266;2022-09-09T03:23:41;19.50;97.60
4425;DHT22;2225;53.568;13.266;2022-09-09T03:26:09;19.40;97.50
4425;DHT22;2225;53.568;13.266;2022-09-09T03:28:42;19.40;97.60
4425;DHT22;2225;53.568;13.266;2022-09-09T03:31:13;19.40;97.50
4425;DHT22;2225;53.568;13.266;2022-09-09T03:33:42;19.40;97.50
4425;DHT22;2225;53.568;13.266;2022-09-09T03:36:12;19.40;97.40
4425;DHT22;2225;53.568;13.266;2022-09-09T03:38:39;19.40;97.50
4425;DHT22;2225;53.568;13.266;2022-09-09T03:41:07;19.40;97.50
4425;DHT22;2225;53.568;13.266;2022-09-09T03:43:34;19.40;97.50
4425;DHT22;2225;53.568;13.266;2022-09-09T03:46:02;19.40;97.50
4425;DHT22;2225;53.568;13.266;2022-09-09T03:48:29;19.40;97.40
4425;DHT22;2225;53.568;13.266;2022-09-09T03:50:58;19.40;97.40
4425;DHT22;2225;53.568;13.266;2022-09-09T03:53:29;19.40;97.40
4425;DHT22;2225;53.568;13.266;2022-09-09T03:55:57;19.40;97.40
4425;DHT22;2225;53.568;13.266;2022-09-09T03:58:27;19.50;97.40
4425;DHT22;2225;53.568;13.266;2022-09-09T04:01:09;19.50;97.40
4425;DHT22;2225;53.568;13.266;2022-09-09T04:03:41;19.50;97.40
4425;DHT22;2225;53.568;13.266;2022-09-09T04:06:09;19.60;97.40
4425;DHT22;2225;53.568;13.266;2022-09-09T04:08:38;19.60;97.40
4425;DHT22;2225;53.568;13.266;2022-09-09T04:11:06;19.50;97.40
4425;DHT22;2225;53.568;13.266;2022-09-09T04:13:35;19.50;97.30
4425;DHT22;2225;53.568;13.266;2022-09-09T04:16:07;19.50;97.30
4425;DHT22;2225;53.568;13.266;2022-09-09T04:18:35;19.50;97.40
4425;DHT22;2225;53.568;13.266;2022-09-09T04:21:03;19.50;97.40
4425;DHT22;2225;53.568;13.266;2022-09-09T04:23:32;19.50;97.40
4425;DHT22;2225;53.568;13.266;2022-09-09T04:26:02;19.50;97.40
4425;DHT22;2225;53.568;13.266;2022-09-09T04:28:34;19.50;97.40
4425;DHT22;2225;53.568;13.266;2022-09-09T04:31:07;19.50;97.40
4425;DHT22;2225;53.568;13.266;2022-09-09T04:33:37;19.50;97.40
4425;DHT22;2225;53.568;13.266;2022-09-09T04:36:07;19.50;97.80
4425;DHT22;2225;53.568;13.266;2022-09-09T04:38:35;19.50;97.40
4425;DHT22;2225;53.568;13.266;2022-09-09T04:41:03;19.50;97.40
4425;DHT22;2225;53.568;13.266;2022-09-09T04:43:32;19.50;97.50
4425;DHT22;2225;53.568;13.266;2022-09-09T04:46:01;19.50;97.40
4425;DHT22;2225;53.568;13.266;2022-09-09T04:48:29;19.40;97.40
4425;DHT22;2225;53.568;13.266;2022-09-09T04:51:00;19.50;97.50
4425;DHT22;2225;53.568;13.266;2022-09-09T04:53:32;19.40;97.50
4425;DHT22;2225;53.568;13.266;2022-09-09T04:56:06;19.50;97.50
4425;DHT22;2225;53.568;13.266;2022-09-09T04:58:41;19.50;97.60
4425;DHT22;2225;53.568;13.266;2022-09-09T05:01:16;19.50;97.60
4425;DHT22;2225;53.568;13.266;2022-09-09T05:03:46;19.50;97.60
4425;DHT22;2225;53.568;13.266;2022-09-09T05:06:19;19.50;97.50
4425;DHT22;2225;53.568;13.266;2022-09-09T05:08:49;19.60;97.60
4425;DHT22;2225;53.568;13.266;2022-09-09T05:11:25;19.60;97.50
4425;DHT22;2225;53.568;13.266;2022-09-09T05:13:58;19.60;97.50
4425;DHT22;2225;53.568;13.266;2022-09-09T05:16:25;19.60;97.50
4425;DHT22;2225;53.568;13.266;2022-09-09T05:18:53;19.60;97.40
4425;DHT22;2225;53.568;13.266;2022-09-09T05:21:22;19.60;97.40
4425;DHT22;2225;53.568;13.266;2022-09-09T05:23:50;19.60;97.40
4425;DHT22;2225;53.568;13.266;2022-09-09T05:26:20;19.70;97.40
4425;DHT22;2225;53.568;13.266;2022-09-09T05:28:50;19.70;97.40
4425;DHT22;2225;53.568;13.266;2022-09-09T05:31:18;19.70;97.40
4425;DHT22;2225;53.568;13.266;2022-09-09T05:33:48;19.80;97.40
4425;DHT22;2225;53.568;13.266;2022-09-09T05:36:20;19.70;97.30
4425;DHT22;2225;53.568;13.266;2022-09-09T05:38:52;19.80;97.30
4425;DHT22;2225;53.568;13.266;2022-09-09T05:41:20;19.80;97.30
4425;DHT22;2225;53.568;13.266;2022-09-09T05:43:51;19.80;97.30
4425;DHT22;2225;53.568;13.266;2022-09-09T05:46:23;19.80;97.10
4425;DHT22;2225;53.568;13.266;2022-09-09T05:48:53;19.90;97.00
4425;DHT22;2225;53.568;13.266;2022-09-09T05:51:28;19.90;97.00
4425;DHT22;2225;53.568;13.266;2022-09-09T05:53:58;19.90;96.90
4425;DHT22;2225;53.568;13.266;2022-09-09T05:56:29;19.90;96.80
4425;DHT22;2225;53.568;13.266;2022-09-09T05:58:57;20.00;96.80
4425;DHT22;2225;53.568;13.266;2022-09-09T06:01:31;20.00;96.80
4425;DHT22;2225;53.568;13.266;2022-09-09T06:04:02;20.00;96.80
4425;DHT22;2225;53.568;13.266;2022-09-09T06:06:33;20.10;96.70
4425;DHT22;2225;53.568;13.266;2022-09-09T06:09:12;20.10;96.50
4425;DHT22;2225;53.568;13.266;2022-09-09T06:11:41;20.10;96.40
4425;DHT22;2225;53.568;13.266;2022-09-09T06:14:09;20.10;96.40
4425;DHT22;2225;53.568;13.266;2022-09-09T06:16:38;20.10;96.30
4425;DHT22;2225;53.568;13.266;2022-09-09T06:19:11;20.10;96.30
4425;DHT22;2225;53.568;13.266;2022-09-09T06:21:39;20.20;96.40
4425;DHT22;2225;53.568;13.266;2022-09-09T06:24:08;20.20;96.30
4425;DHT22;2225;53.568;13.266;2022-09-09T06:26:37;20.20;96.20
4425;DHT22;2225;53.568;13.266;2022-09-09T06:29:10;20.30;96.30
4425;DHT22;2225;53.568;13.266;2022-09-09T06:31:38;20.30;96.10
4425;DHT22;2225;53.568;13.266;2022-09-09T06:34:12;20.30;96.10
4425;DHT22;2225;53.568;13.266;2022-09-09T06:36:43;20.30;96.10
4425;DHT22;2225;53.568;13.266;2022-09-09T06:39:13;20.40;96.00
4425;DHT22;2225;53.568;13.266;2022-09-09T06:41:42;20.40;95.90
4425;DHT22;2225;53.568;13.266;2022-09-09T06:44:42;20.40;95.90
4425;DHT22;2225;53.568;13.266;2022-09-09T06:47:13;20.50;96.00
4425;DHT22;2225;53.568;13.266;2022-09-09T06:49:41;20.50;95.70
4425;DHT22;2225;53.568;13.266;2022-09-09T06:52:14;20.50;95.60
4425;DHT22;2225;53.568;13.266;2022-09-09T06:54:41;20.60;95.40
4425;DHT22;2225;53.568;13.266;2022-09-09T06:57:08;20.60;95.40
4425;DHT22;2225;53.568;13.266;2022-09-09T06:59:56;20.60;95.50
4425;DHT22;2225;53.568;13.266;2022-09-09T07:02:23;20.70;95.40
4425;DHT22;2225;53.568;13.266;2022-09-09T07:04:51;20.70;95.30
4425;DHT22;2225;53.568;13.266;2022-09-09T07:07:18;20.70;95.20
4425;DHT22;2225;53.568;13.266;2022-09-09T07:09:45;20.70;95.10
4425;DHT22;2225;53.568;13.266;2022-09-09T07:12:13;20.70;95.20
4425;DHT22;2225;53.568;13.266;2022-09-09T07:14:47;20.80;95.30
4425;DHT22;2225;53.568;13.266;2022-09-09T07:17:14;20.80;95.20
4425;DHT22;2225;53.568;13.266;2022-09-09T07:19:41;20.80;95.00
4425;DHT22;2225;53.568;13.266;2022-09-09T07:22:09;20.80;94.90
4425;DHT22;2225;53.568;13.266;2022-09-09T07:24:37;20.90;95.00
4425;DHT22;2225;53.568;13.266;2022-09-09T07:27:05;20.90;94.90
4425;DHT22;2225;53.568;13.266;2022-09-09T07:29:34;20.90;94.90
4425;DHT22;2225;53.568;13.266;2022-09-09T07:32:01;21.00;94.90
4425;DHT22;2225;53.568;13.266;2022-09-09T07:34:34;21.00;94.60
4425;DHT22;2225;53.568;13.266;2022-09-09T07:37:01;21.10;94.60
4425;DHT22;2225;53.568;13.266;2022-09-09T07:39:29;21.10;94.50
4425;DHT22;2225;53.568;13.266;2022-09-09T07:41:56;21.10;94.60
4425;DHT22;2225;53.568;13.266;2022-09-09T07:44:25;21.20;94.60
4425;DHT22;2225;53.568;13.266;2022-09-09T07:47:03;21.30;94.50
4425;DHT22;2225;53.568;13.266;2022-09-09T07:49:35;21.30;94.40
4425;DHT22;2225;53.568;13.266;2022-09-09T07:52:05;21.40;94.20
4425;DHT22;2225;53.568;13.266;2022-09-09T07:54:33;21.40;94.10
4425;DHT22;2225;53.568;13.266;2022-09-09T07:57:03;21.50;94.20
4425;DHT22;2225;53.568;13.266;2022-09-09T07:59:32;21.60;94.30
4425;DHT22;2225;53.568;13.266;2022-09-09T08:02:00;21.70;94.00
4425;DHT22;2225;53.568;13.266;2022-09-09T08:04:30;21.70;93.80
4425;DHT22;2225;53.568;13.266;2022-09-09T08:06:59;21.80;93.80
4425;DHT22;2225;53.568;13.266;2022-09-09T08:09:29;21.90;93.80
4425;DHT22;2225;53.568;13.266;2022-09-09T08:12:10;22.00;93.70
4425;DHT22;2225;53.568;13.266;2022-09-09T08:14:39;22.10;93.70
4425;DHT22;2225;53.568;13.266;2022-09-09T08:17:06;22.20;93.20
4425;DHT22;2225;53.568;13.266;2022-09-09T08:19:33;22.30;93.00
4425;DHT22;2225;53.568;13.266;2022-09-09T08:22:06;22.40;92.90
4425;DHT22;2225;53.568;13.266;2022-09-09T08:24:35;22.40;92.70
4425;DHT22;2225;53.568;13.266;2022-09-09T08:27:02;22.50;92.70
4425;DHT22;2225;53.568;13.266;2022-09-09T08:29:30;22.50;92.70
4425;DHT22;2225;53.568;13.266;2022-09-09T08:31:58;22.60;92.60
4425;DHT22;2225;53.568;13.266;2022-09-09T08:34:27;22.60;92.40
4425;DHT22;2225;53.568;13.266;2022-09-09T08:36:56;22.70;92.20
4425;DHT22;2225;53.568;13.266;2022-09-09T08:39:30;22.70;91.70
4425;DHT22;2225;53.568;13.266;2022-09-09T08:48:08;22.60;92.00
4425;DHT22;2225;53.568;13.266;2022-09-09T08:50:49;22.70;91.90
4425;DHT22;2225;53.568;13.266;2022-09-09T08:53:27;22.70;92.00
4425;DHT22;2225;53.568;13.266;2022-09-09T08:56:02;22.70;92.00
4425;DHT22;2225;53.568;13.266;2022-09-09T08:58:47;22.70;91.90
4425;DHT22;2225;53.568;13.266;2022-09-09T09:01:41;22.80;91.90
4425;DHT22;2225;53.568;13.266;2022-09-09T09:04:56;22.80;91.70
4425;DHT22;2225;53.568;13.266;2022-09-09T09:07:38;22.80;91.70
4425;DHT22;2225;53.568;13.266;2022-09-09T09:10:28;22.80;91.80
4425;DHT22;2225;53.568;13.266;2022-09-09T09:13:37;22.90;91.90
4425;DHT22;2225;53.568;13.266;2022-09-09T09:16:34;22.90;92.10
4425;DHT22;2225;53.568;13.266;2022-09-09T09:19:13;23.00;92.00
4425;DHT22;2225;53.568;13.266;2022-09-09T09:21:53;23.10;92.00
4425;DHT22;2225;53.568;13.266;2022-09-09T09:31:11;23.40;91.40
4425;DHT22;2225;53.568;13.266;2022-09-09T09:33:43;23.50;91.00
4425;DHT22;2225;53.568;13.266;2022-09-09T09:36:15;23.50;90.60
4425;DHT22;2225;53.568;13.266;2022-09-09T09:38:57;23.60;91.00
4425;DHT22;2225;53.568;13.266;2022-09-09T09:41:47;23.70;90.70
4425;DHT22;2225;53.568;13.266;2022-09-09T09:44:29;23.70;91.00
4425;DHT22;2225;53.568;13.266;2022-09-09T09:47:07;23.90;90.80
4425;DHT22;2225;53.568;13.266;2022-09-09T09:49:35;23.90;90.60
4425;DHT22;2225;53.568;13.266;2022-09-09T09:52:04;24.00;90.80
4425;DHT22;2225;53.568;13.266;2022-09-09T09:54:37;24.10;90.30
4425;DHT22;2225;53.568;13.266;2022-09-09T09:57:10;24.10;90.20
4425;DHT22;2225;53.568;13.266;2022-09-09T09:59:39;24.20;88.80
4425;DHT22;2225;53.568;13.266;2022-09-09T10:04:39;24.20;87.60
4425;DHT22;2225;53.568;13.266;2022-09-09T10:07:21;24.20;87.80
4425;DHT22;2225;53.568;13.266;2022-09-09T10:09:53;24.30;88.00
4425;DHT22;2225;53.568;13.266;2022-09-09T10:15:57;24.40;88.40
4425;DHT22;2225;53.568;13.266;2022-09-09T10:18:53;24.40;87.80
4425;DHT22;2225;53.568;13.266;2022-09-09T10:21:54;24.50;88.10
4425;DHT22;2225;53.568;13.266;2022-09-09T10:30:19;24.70;88.00
4425;DHT22;2225;53.568;13.266;2022-09-09T10:32:49;24.80;86.70
4425;DHT22;2225;53.568;13.266;2022-09-09T10:44:14;25.00;84.80
4425;DHT22;2225;53.568;13.266;2022-09-09T10:54:13;25.20;84.20
4425;DHT22;2225;53.568;13.266;2022-09-09T10:57:05;25.40;84.60
4425;DHT22;2225;53.568;13.266;2022-09-09T10:59:44;25.40;83.20
4425;DHT22;2225;53.568;13.266;2022-09-09T11:02:25;25.40;82.30
4425;DHT22;2225;53.568;13.266;2022-09-09T11:07:57;25.50;83.10
4425;DHT22;2225;53.568;13.266;2022-09-09T11:10:42;25.60;81.80
4425;DHT22;2225;53.568;13.266;2022-09-09T11:13:40;25.60;82.50
4425;DHT22;2225;53.568;13.266;2022-09-09T11:17:06;25.60;81.70
4425;DHT22;2225;53.568;13.266;2022-09-09T11:19:41;25.70;81.80
4425;DHT22;2225;53.568;13.266;2022-09-09T11:22:26;25.70;81.40
4425;DHT22;2225;53.568;13.266;2022-09-09T11:25:02;25.70;80.80
4425;DHT22;2225;53.568;13.266;2022-09-09T11:42:23;26.10;79.10
4425;DHT22;2225;53.568;13.266;2022-09-09T11:44:51;26.10;78.50
4425;DHT22;2225;53.568;13.266;2022-09-09T11:47:29;26.20;79.30
4425;DHT22;2225;53.568;13.266;2022-09-09T11:52:44;26.30;78.30
4425;DHT22;2225;53.568;13.266;2022-09-09T11:55:31;26.40;77.90
4425;DHT22;2225;53.568;13.266;2022-09-09T11:58:01;26.40;78.00
4425;DHT22;2225;53.568;13.266;2022-09-09T12:00:49;26.40;77.70
4425;DHT22;2225;53.568;13.266;2022-09-09T12:03:36;26.40;78.20
4425;DHT22;2225;53.568;13.266;2022-09-09T12:06:30;26.50;78.70
4425;DHT22;2225;53.568;13.266;2022-09-09T12:09:07;26.60;77.50
4425;DHT22;2225;53.568;13.266;2022-09-09T12:11:37;26.70;78.20
4425;DHT22;2225;53.568;13.266;2022-09-09T12:14:04;26.70;78.80
4425;DHT22;2225;53.568;13.266;2022-09-09T12:16:33;26.80;78.00
4425;DHT22;2225;53.568;13.266;2022-09-09T12:19:13;26.80;78.00
4425;DHT22;2225;53.568;13.266;2022-09-09T12:22:00;26.90;77.00
4425;DHT22;2225;53.568;13.266;2022-09-09T12:27:28;27.10;77.00
4425;DHT22;2225;53.568;13.266;2022-09-09T12:30:09;27.20;75.50
4425;DHT22;2225;53.568;13.266;2022-09-09T12:32:38;27.20;75.40
4425;DHT22;2225;53.568;13.266;2022-09-09T12:35:18;27.30;74.30
4425;DHT22;2225;53.568;13.266;2022-09-09T12:37:54;27.30;75.20
4425;DHT22;2225;53.568;13.266;2022-09-09T12:40:26;27.30;74.40
4425;DHT22;2225;53.568;13.266;2022-09-09T12:42:55;27.20;74.50
4425;DHT22;2225;53.568;13.266;2022-09-09T12:45:24;27.20;75.20
4425;DHT22;2225;53.568;13.266;2022-09-09T12:48:11;27.30;75.40
4425;DHT22;2225;53.568;13.266;2022-09-09T12:50:52;27.30;75.40
4425;DHT22;2225;53.568;13.266;2022-09-09T12:53:33;27.40;73.40
4425;DHT22;2225;53.568;13.266;2022-09-09T12:56:17;27.40;73.90
4425;DHT22;2225;53.568;13.266;2022-09-09T12:58:48;27.40;74.00
4425;DHT22;2225;53.568;13.266;2022-09-09T13:01:31;27.50;74.20
4425;DHT22;2225;53.568;13.266;2022-09-09T13:04:00;27.50;72.80
4425;DHT22;2225;53.568;13.266;2022-09-09T13:06:31;27.60;73.60
4425;DHT22;2225;53.568;13.266;2022-09-09T13:09:01;27.60;72.00
4425;DHT22;2225;53.568;13.266;2022-09-09T13:14:02;27.60;72.20
4425;DHT22;2225;53.568;13.266;2022-09-09T13:16:31;27.60;72.50
4425;DHT22;2225;53.568;13.266;2022-09-09T13:19:17;27.60;72.00
4425;DHT22;2225;53.568;13.266;2022-09-09T13:21:44;27.70;71.60
4425;DHT22;2225;53.568;13.266;2022-09-09T13:24:32;27.70;72.90
4425;DHT22;2225;53.568;13.266;2022-09-09T13:27:40;27.80;70.10
4425;DHT22;2225;53.568;13.266;2022-09-09T13:30:26;27.80;70.50
4425;DHT22;2225;53.568;13.266;2022-09-09T13:35:54;27.80;70.40
4425;DHT22;2225;53.568;13.266;2022-09-09T13:38:23;27.80;69.00
4425;DHT22;2225;53.568;13.266;2022-09-09T13:41:02;27.70;69.80
4425;DHT22;2225;53.568;13.266;2022-09-09T13:43:37;27.70;69.70
4425;DHT22;2225;53.568;13.266;2022-09-09T13:46:32;27.70;69.40
4425;DHT22;2225;53.568;13.266;2022-09-09T13:51:41;27.50;69.70
4425;DHT22;2225;53.568;13.266;2022-09-09T13:54:13;27.50;69.80
4425;DHT22;2225;53.568;13.266;2022-09-09T13:56:43;27.40;69.10
4425;DHT22;2225;53.568;13.266;2022-09-09T13:59:15;27.40;71.50
4425;DHT22;2225;53.568;13.266;2022-09-09T14:01:46;27.40;69.30
4425;DHT22;2225;53.568;13.266;2022-09-09T14:04:13;27.40;68.10
4425;DHT22;2225;53.568;13.266;2022-09-09T14:06:41;27.50;69.50
4425;DHT22;2225;53.568;13.266;2022-09-09T14:09:12;27.50;68.90
4425;DHT22;2225;53.568;13.266;2022-09-09T14:11:43;27.50;69.10
4425;DHT22;2225;53.568;13.266;2022-09-09T14:14:11;27.50;68.90
4425;DHT22;2225;53.568;13.266;2022-09-09T14:16:38;27.50;68.60
4425;DHT22;2225;53.568;13.266;2022-09-09T14:19:05;27.50;68.60
4425;DHT22;2225;53.568;13.266;2022-09-09T14:21:32;27.40;68.80
4425;DHT22;2225;53.568;13.266;2022-09-09T14:23:59;27.50;69.00
4425;DHT22;2225;53.568;13.266;2022-09-09T14:26:26;27.40;68.60
4425;DHT22;2225;53.568;13.266;2022-09-09T14:28:55;27.40;68.10
4425;DHT22;2225;53.568;13.266;2022-09-09T14:31:24;27.50;68.70
4425;DHT22;2225;53.568;13.266;2022-09-09T14:33:51;27.50;68.70
4425;DHT22;2225;53.568;13.266;2022-09-09T14:36:19;27.50;68.70
4425;DHT22;2225;53.568;13.266;2022-09-09T14:38:46;27.50;66.60
4425;DHT22;2225;53.568;13.266;2022-09-09T14:41:15;27.50;67.70
4425;DHT22;2225;53.568;13.266;2022-09-09T14:43:44;27.50;67.90
4425;DHT22;2225;53.568;13.266;2022-09-09T14:46:16;27.50;68.00
4425;DHT22;2225;53.568;13.266;2022-09-09T14:48:45;27.60;68.70
4425;DHT22;2225;53.568;13.266;2022-09-09T14:51:21;27.60;67.00
4425;DHT22;2225;53.568;13.266;2022-09-09T14:53:54;27.60;66.10
4425;DHT22;2225;53.568;13.266;2022-09-09T14:56:26;27.60;66.90
4425;DHT22;2225;53.568;13.266;2022-09-09T14:58:55;27.60;67.50
4425;DHT22;2225;53.568;13.266;2022-09-09T15:01:24;27.60;67.30
4425;DHT22;2225;53.568;13.266;2022-09-09T15:04:02;27.60;65.90
4425;DHT22;2225;53.568;13.266;2022-09-09T15:06:32;27.60;65.40
4425;DHT22;2225;53.568;13.266;2022-09-09T15:09:01;27.50;65.80
4425;DHT22;2225;53.568;13.266;2022-09-09T15:11:30;27.50;66.20
4425;DHT22;2225;53.568;13.266;2022-09-09T15:14:05;27.50;65.40
4425;DHT22;2225;53.568;13.266;2022-09-09T15:16:32;27.40;65.70
4425;DHT22;2225;53.568;13.266;2022-09-09T15:19:01;27.40;66.10
4425;DHT22;2225;53.568;13.266;2022-09-09T15:21:34;27.30;66.20
4425;DHT22;2225;53.568;13.266;2022-09-09T15:24:02;27.20;66.80
4425;DHT22;2225;53.568;13.266;2022-09-09T15:26:30;27.20;66.60
4425;DHT22;2225;53.568;13.266;2022-09-09T15:28:58;27.20;66.90
4425;DHT22;2225;53.568;13.266;2022-09-09T15:31:29;27.20;67.00
4425;DHT22;2225;53.568;13.266;2022-09-09T15:34:03;27.20;66.90
4425;DHT22;2225;53.568;13.266;2022-09-09T15:36:41;27.20;66.60
4425;DHT22;2225;53.568;13.266;2022-09-09T15:39:11;27.10;66.80
4425;DHT22;2225;53.568;13.266;2022-09-09T15:41:42;27.10;67.10
4425;DHT22;2225;53.568;13.266;2022-09-09T15:44:10;27.10;67.50
4425;DHT22;2225;53.568;13.266;2022-09-09T15:46:45;27.10;67.90
4425;DHT22;2225;53.568;13.266;2022-09-09T15:49:18;27.10;68.10
4425;DHT22;2225;53.568;13.266;2022-09-09T15:51:59;27.10;67.80
4425;DHT22;2225;53.568;13.266;2022-09-09T15:54:34;27.10;67.80
4425;DHT22;2225;53.568;13.266;2022-09-09T15:57:04;27.10;69.00
4425;DHT22;2225;53.568;13.266;2022-09-09T15:59:32;27.00;68.20
4425;DHT22;2225;53.568;13.266;2022-09-09T16:02:00;26.90;68.20
4425;DHT22;2225;53.568;13.266;2022-09-09T16:04:28;26.90;68.40
4425;DHT22;2225;53.568;13.266;2022-09-09T16:06:58;26.80;68.50
4425;DHT22;2225;53.568;13.266;2022-09-09T16:09:31;26.70;68.90
4425;DHT22;2225;53.568;13.266;2022-09-09T16:11:59;26.60;69.30
4425;DHT22;2225;53.568;13.266;2022-09-09T16:14:27;26.50;69.70
4425;DHT22;2225;53.568;13.266;2022-09-09T16:16:54;26.40;70.10
4425;DHT22;2225;53.568;13.266;2022-09-09T16:19:22;26.40;70.50
4425;DHT22;2225;53.568;13.266;2022-09-09T16:21:49;26.30;71.10
4425;DHT22;2225;53.568;13.266;2022-09-09T16:24:18;26.30;71.70
4425;DHT22;2225;53.568;13.266;2022-09-09T16:26:49;26.20;72.10
4425;DHT22;2225;53.568;13.266;2022-09-09T16:29:18;26.10;72.40
4425;DHT22;2225;53.568;13.266;2022-09-09T16:31:46;26.10;73.10
4425;DHT22;2225;53.568;13.266;2022-09-09T16:34:14;26.10;73.40
4425;DHT22;2225;53.568;13.266;2022-09-09T16:36:43;26.00;73.90
4425;DHT22;2225;53.568;13.266;2022-09-09T16:39:13;26.00;74.00
4425;DHT22;2225;53.568;13.266;2022-09-09T16:41:42;26.00;74.00
4425;DHT22;2225;53.568;13.266;2022-09-09T16:44:12;25.90;74.20
4425;DHT22;2225;53.568;13.266;2022-09-09T16:46:41;25.90;74.20
4425;DHT22;2225;53.568;13.266;2022-09-09T16:49:12;25.80;74.30
4425;DHT22;2225;53.568;13.266;2022-09-09T16:51:42;25.80;74.50
4425;DHT22;2225;53.568;13.266;2022-09-09T16:54:11;25.70;74.60
4425;DHT22;2225;53.568;13.266;2022-09-09T16:56:41;25.70;74.60
4425;DHT22;2225;53.568;13.266;2022-09-09T16:59:15;25.70;74.90
4425;DHT22;2225;53.568;13.266;2022-09-09T17:01:44;25.60;74.90
4425;DHT22;2225;53.568;13.266;2022-09-09T17:04:21;25.60;75.00
4425;DHT22;2225;53.568;13.266;2022-09-09T17:06:52;25.50;75.20
4425;DHT22;2225;53.568;13.266;2022-09-09T17:09:21;25.50;75.20
4425;DHT22;2225;53.568;13.266;2022-09-09T17:11:49;25.50;75.40
4425;DHT22;2225;53.568;13.266;2022-09-09T17:14:20;25.40;75.50
4425;DHT22;2225;53.568;13.266;2022-09-09T17:16:48;25.40;75.70
4425;DHT22;2225;53.568;13.266;2022-09-09T17:19:15;25.30;76.10
4425;DHT22;2225;53.568;13.266;2022-09-09T17:21:42;25.30;76.10
4425;DHT22;2225;53.568;13.266;2022-09-09T17:24:29;25.20;76.30
4425;DHT22;2225;53.568;13.266;2022-09-09T17:26:57;25.20;76.60
4425;DHT22;2225;53.568;13.266;2022-09-09T17:29:24;25.10;76.80
4425;DHT22;2225;53.568;13.266;2022-09-09T17:31:51;25.10;77.00
4425;DHT22;2225;53.568;13.266;2022-09-09T17:34:18;25.00;77.10
4425;DHT22;2225;53.568;13.266;2022-09-09T17:36:45;25.00;77.10
4425;DHT22;2225;53.568;13.266;2022-09-09T17:39:13;25.00;77.20
4425;DHT22;2225;53.568;13.266;2022-09-09T17:41:40;24.90;77.30
4425;DHT22;2225;53.568;13.266;2022-09-09T17:44:07;24.90;77.40
4425;DHT22;2225;53.568;13.266;2022-09-09T17:46:38;24.80;77.50
4425;DHT22;2225;53.568;13.266;2022-09-09T17:49:12;24.80;77.70
4425;DHT22;2225;53.568;13.266;2022-09-09T17:51:41;24.80;78.00
4425;DHT22;2225;53.568;13.266;2022-09-09T17:54:11;24.80;78.10
4425;DHT22;2225;53.568;13.266;2022-09-09T17:56:40;24.80;78.30
4425;DHT22;2225;53.568;13.266;2022-09-09T17:59:09;24.70;78.30
4425;DHT22;2225;53.568;13.266;2022-09-09T18:01:39;24.70;78.50
4425;DHT22;2225;53.568;13.266;2022-09-09T18:04:08;24.70;78.60
4425;DHT22;2225;53.568;13.266;2022-09-09T18:06:38;24.70;78.80
4425;DHT22;2225;53.568;13.266;2022-09-09T18:09:10;24.70;78.80
4425;DHT22;2225;53.568;13.266;2022-09-09T18:11:45;24.70;79.00
4425;DHT22;2225;53.568;13.266;2022-09-09T18:14:16;24.60;79.10
4425;DHT22;2225;53.568;13.266;2022-09-09T18:16:46;24.60;79.30
4425;DHT22;2225;53.568;13.266;2022-09-09T18:19:15;24.60;79.20
4425;DHT22;2225;53.568;13.266;2022-09-09T18:21:44;24.50;79.30
4425;DHT22;2225;53.568;13.266;2022-09-09T18:24:13;24.50;79.30
4425;DHT22;2225;53.568;13.266;2022-09-09T18:26:41;24.40;79.50
4425;DHT22;2225;53.568;13.266;2022-09-09T18:29:14;24.30;79.60
4425;DHT22;2225;53.568;13.266;2022-09-09T18:31:42;24.30;80.20